Main page
METAR-TAF:

METAR-TAF

Airports :

St Mary's Airport

Isles of Scilly, England

latitude: 49-55N, longitude: 006-18W, elevation: 31 m

Current weather observation

The report was made 11 hours and 57 minutes ago, at 16:50 UTC
Wind 13 kt from the North/Northeast
Temperature 20°C
Humidity 83%
Pressure 1016 hPa
Visibility 10 km or more
Scattered clouds at a height of 2500 ft

METAR: EGHE 211650Z 02013KT 9999 SCT025 20/17 Q1016

Time: 05:47 (04:47 UTC)

Forecast

The report was made 14 hours and 48 minutes ago, at 13:59 UTC
Forecast valid from 21 at 15 UTC to 21 at 18 UTC
Wind 12 kt from the North
Visibility 10 km or more
Scattered clouds at a height of 2500 ft
Probability 30% :
Temporary
from 21 at 15 UTC to 21 at 18 UTC
Broken clouds at a height of 800 ft

TAF: EGHE 211359Z 2115/2118 36012KT 9999 SCT025 PROB30 TEMPO 2115/2118 BKN008

Weather observations and forecasts of more than 4000 airports (METAR and TAF reports).

The available stations are represented by yellow and red dots on the map.

Hover mouse over dot to see the name of the station.

Then click to see weather observations and forecasts.

To change the map : click on the green buttons with a black cross to zoom in, on the green button with a dash to zoom out, or on the green arrows for adjacent maps.


METAR-TAF: